Time;durP1;ratioP1;P1;durP2;ratioP2;P2;SDS_P1;SDS_P2;PMS_P1;PMS_P2;Temp;Humidity;BMP_temperature;BMP_pressure;BME280_temperature;BME280_humidity;BME280_pressure;Samples;Min_cycle;Max_cycle;Signal;HPM_P1;HPM_P2
2022/05/16 03:02:45;;;;;;;8.45;3.78;;;13.40;99.90;;;;;;5122638;23;20046;-78
2022/05/16 03:05:11;;;;;;;11.88;3.95;;;13.40;99.90;;;;;;4942472;28;20122;-78
2022/05/16 03:07:37;;;;;;;10.40;3.90;;;13.30;99.90;;;;;;4942715;28;20050;-78
2022/05/16 03:10:04;;;;;;;9.27;4.05;;;13.30;99.90;;;;;;4958459;28;20050;-80
2022/05/16 03:12:30;;;;;;;9.57;3.92;;;13.30;99.90;;;;;;4957505;28;20093;-79
2022/05/16 03:14:55;;;;;;;8.75;3.63;;;13.30;99.90;;;;;;4958137;28;20462;-79
2022/05/16 03:17:23;;;;;;;14.35;5.32;;;13.30;99.90;;;;;;4942778;28;20422;-79
2022/05/16 03:19:49;;;;;;;10.38;4.65;;;13.30;99.90;;;;;;4942454;28;20042;-79
2022/05/16 03:22:15;;;;;;;9.73;4.18;;;13.20;99.90;;;;;;4942331;28;20565;-79
2022/05/16 03:24:41;;;;;;;11.18;3.85;;;13.20;99.90;;;;;;4942461;28;20223;-79
2022/05/16 03:27:07;;;;;;;10.20;3.88;;;13.20;99.90;;;;;;4942301;28;20074;-79
2022/05/16 03:29:33;;;;;;;9.95;4.15;;;13.20;99.90;;;;;;4942459;28;20130;-79
2022/05/16 03:31:59;;;;;;;10.38;4.20;;;13.20;99.90;;;;;;4942205;28;20134;-79
2022/05/16 03:34:25;;;;;;;10.77;4.07;;;13.20;99.90;;;;;;4942414;28;20039;-79
2022/05/16 03:36:52;;;;;;;8.88;3.80;;;13.20;99.90;;;;;;4942085;28;20038;-78
2022/05/16 03:42:03;;;;;;;11.27;3.75;;;13.10;99.90;;;;;;4957428;28;20074;-79
2022/05/16 03:44:29;;;;;;;6.70;3.10;;;13.20;99.90;;;;;;4942119;28;20035;-80
2022/05/16 03:46:55;;;;;;;9.07;4.50;;;13.10;99.90;;;;;;4941836;28;20050;-78
2022/05/16 03:49:21;;;;;;;9.73;3.83;;;13.10;99.90;;;;;;4941944;28;20034;-79
2022/05/16 03:51:47;;;;;;;9.75;3.88;;;13.10;99.90;;;;;;4941590;28;20376;-79
2022/05/16 03:54:15;;;;;;;13.00;3.90;;;13.00;99.90;;;;;;4941610;28;20042;-79
2022/05/16 03:56:41;;;;;;;12.27;3.83;;;13.10;99.90;;;;;;4941771;28;20093;-80
2022/05/16 03:59:07;;;;;;;13.27;3.90;;;13.00;99.90;;;;;;4957726;28;20120;-79
2022/05/16 04:01:33;;;;;;;10.10;3.72;;;13.00;99.90;;;;;;4941631;28;20098;-78
2022/05/16 04:03:59;;;;;;;11.82;3.75;;;13.00;99.90;;;;;;4941477;28;20046;-79
2022/05/16 04:06:26;;;;;;;9.05;3.67;;;13.00;99.90;;;;;;4941957;28;20196;-78
2022/05/16 04:08:53;;;;;;;9.23;3.92;;;13.00;99.90;;;;;;4941682;28;20070;-79
2022/05/16 04:11:19;;;;;;;8.68;3.75;;;13.00;99.90;;;;;;4941635;28;20042;-79
2022/05/16 04:13:46;;;;;;;10.48;4.07;;;13.00;99.90;;;;;;4941806;28;20189;-79
2022/05/16 04:16:12;;;;;;;9.95;3.25;;;13.00;99.90;;;;;;4941405;28;20039;-79
2022/05/16 04:18:40;;;;;;;10.18;3.17;;;13.00;99.90;;;;;;4941092;28;20096;-78
2022/05/16 04:21:06;;;;;;;7.93;3.40;;;13.00;99.90;;;;;;4957143;28;20549;-78
2022/05/16 04:23:32;;;;;;;12.70;3.70;;;13.00;99.90;;;;;;4940933;28;20537;-79
2022/05/16 04:25:58;;;;;;;8.95;3.35;;;13.00;99.90;;;;;;4941154;28;20054;-79
2022/05/16 04:28:24;;;;;;;8.18;3.75;;;13.00;99.90;;;;;;4941096;28;20043;-78
2022/05/16 04:30:50;;;;;;;10.20;3.67;;;13.00;99.90;;;;;;4940919;28;20093;-78
2022/05/16 04:33:18;;;;;;;9.68;3.05;;;13.10;99.90;;;;;;4942136;28;20042;-79
2022/05/16 04:35:44;;;;;;;10.07;3.15;;;13.10;99.90;;;;;;4941334;28;20077;-79
2022/05/16 04:38:10;;;;;;;11.43;3.83;;;13.10;99.90;;;;;;4941535;28;20074;-79
2022/05/16 04:44:48;;;;;;;10.32;3.25;;;13.20;99.90;;;;;;4954550;28;20066;-78
2022/05/16 04:47:37;;;;;;;;;;;;;;;;;;;;;
2022/05/16 04:50:49;;;;;;;10.70;3.20;;;13.20;99.90;;;;;;4973758;28;20138;-79
2022/05/16 04:54:22;;;;;;;10.88;4.43;;;13.30;99.90;;;;;;4897203;29;20104;-78
2022/05/16 04:57:04;;;;;;;9.50;3.67;;;13.30;99.90;;;;;;4880849;29;20091;-78
2022/05/16 04:59:58;;;;;;;11.77;3.90;;;13.20;99.90;;;;;;4955696;28;20051;-79
2022/05/16 05:03:19;;;;;;;;;;;;;;;;;;;;;
2022/05/16 05:06:16;;;;;;;;;;;;;;;;;;;;;
2022/05/16 05:16:26;;;;;;;10.85;3.28;;;13.30;99.90;;;;;;4945857;28;20074;-80
2022/05/16 05:19:47;;;;;;;;;;;;;;;;;;;;;
2022/05/16 05:22:27;;;;;;;5.68;3.03;;;13.40;99.90;;;;;;4947791;28;20130;-79
2022/05/16 05:25:01;;;;;;;13.38;3.90;;;13.40;99.90;;;;;;4940273;28;20046;-78
2022/05/16 05:28:24;;;;;;;;;;;;;;;;;;;;;
2022/05/16 05:31:18;;;;;;;11.38;3.38;;;13.50;99.90;;;;;;4960418;23;20051;-75
2022/05/16 05:33:49;;;;;;;10.20;3.58;;;13.60;99.90;;;;;;4917779;29;20078;-79
2022/05/16 05:36:36;;;;;;;11.43;3.17;;;13.60;99.90;;;;;;4919752;29;20055;-79
2022/05/16 05:39:05;;;;;;;11.23;3.45;;;13.70;99.90;;;;;;4921116;29;20103;-79
2022/05/16 05:46:04;;;;;;;10.50;3.60;;;13.90;99.90;;;;;;4790606;30;20080;-78
2022/05/16 05:53:23;;;;;;;13.25;2.97;;;14.10;99.90;;;;;;5009739;23;20473;-79
2022/05/16 06:00:45;;;;;;;10.70;3.17;;;14.20;99.90;;;;;;4887732;28;20160;-80
2022/05/16 06:11:21;;;;;;;;;;;;;;;;;;;;;
2022/05/16 06:14:14;;;;;;;11.63;2.95;;;14.60;99.90;;;;;;4841389;29;20503;-79
2022/05/16 06:17:25;;;;;;;;;;;;;;;;;;;;;
2022/05/16 06:19:53;;;;;;;9.65;2.95;;;14.80;99.90;;;;;;4939342;29;20091;-79
2022/05/16 06:22:25;;;;;;;10.85;3.58;;;14.90;99.90;;;;;;4923504;29;20451;-80
2022/05/16 06:28:17;;;;;;;11.10;3.05;;;15.00;99.90;;;;;;4880934;29;20050;-79
2022/05/16 06:30:52;;;;;;;13.95;3.47;;;15.20;99.90;;;;;;4957901;29;20039;-79
2022/05/16 06:33:21;;;;;;;13.60;3.38;;;15.20;99.90;;;;;;4924222;29;20505;-79
2022/05/16 06:35:48;;;;;;;10.85;3.20;;;15.30;99.90;;;;;;4939996;29;20090;-79
2022/05/16 06:38:19;;;;;;;9.68;2.97;;;15.30;99.90;;;;;;4924511;29;20490;-79
2022/05/16 06:40:56;;;;;;;12.55;3.00;;;15.40;99.90;;;;;;4924006;29;20380;-78
2022/05/16 06:43:24;;;;;;;9.27;3.20;;;15.50;99.90;;;;;;4938904;29;20093;-79
2022/05/16 06:45:51;;;;;;;11.63;3.40;;;15.60;99.90;;;;;;4939341;28;20051;-78
2022/05/16 06:48:35;;;;;;;;;;;;;;;;;;;;;
2022/05/16 06:51:10;;;;;;;10.48;3.13;;;15.80;99.90;;;;;;4938988;29;20464;-79
2022/05/16 06:53:42;;;;;;;14.18;3.72;;;15.90;99.90;;;;;;4940515;29;20138;-80
2022/05/16 06:56:07;;;;;;;15.20;3.00;;;16.00;99.90;;;;;;4957240;29;20408;-79
2022/05/16 06:58:34;;;;;;;13.20;3.47;;;16.10;99.90;;;;;;4956782;29;20046;-78
2022/05/16 07:00:59;;;;;;;12.82;3.08;;;16.20;99.90;;;;;;4956548;29;20050;-79
2022/05/16 07:03:52;;;;;;;;;;;;;;;;;;;;;
2022/05/16 07:07:32;;;;;;;10.70;2.95;;;16.30;99.90;;;;;;4921488;29;20175;-78
2022/05/16 07:10:08;;;;;;;8.80;2.55;;;16.50;99.90;;;;;;4923994;29;20035;-79
2022/05/16 07:20:10;;;;;;;13.25;3.88;;;16.80;99.90;;;;;;4768487;30;20094;-78
2022/05/16 07:29:28;;;;;;;9.88;2.85;;;17.20;99.90;;;;;;4975254;28;20046;-78
2022/05/16 07:32:56;;;;;;;;;;;;;;;;;;;;;
2022/05/16 07:35:30;;;;;;;8.52;3.33;;;17.50;99.90;;;;;;4883772;28;20050;-80
2022/05/16 07:38:22;;;;;;;14.18;3.28;;;17.60;99.90;;;;;;4957739;28;20074;-81
2022/05/16 07:41:09;;;;;;;9.07;3.20;;;17.70;99.90;;;;;;4956922;28;20055;-78
2022/05/16 07:43:46;;;;;;;14.02;3.38;;;17.80;99.90;;;;;;4957389;28;20061;-78
2022/05/16 07:50:12;;;;;;;;;;;;;;;;;;;;;
2022/05/16 07:53:36;;;;;;;11.43;2.97;;;18.30;99.90;;;;;;4969553;28;20055;-79
2022/05/16 07:57:20;;;;;;;;;;;;;;;;;;;;;
2022/05/16 08:01:00;;;;;;;;;;;;;;;;;;;;;
2022/05/16 08:04:06;;;;;;;13.10;3.00;;;18.90;99.90;;;;;;4822937;29;20063;-79
2022/05/16 08:06:33;;;;;;;12.82;2.95;;;19.10;99.90;;;;;;4877141;29;20583;-80
2022/05/16 08:14:44;;;;;;;7.75;2.97;;;19.60;99.90;;;;;;5062757;23;20055;-80
2022/05/16 08:17:53;;;;;;;8.30;2.57;;;19.70;99.90;;;;;;4974005;28;20456;-79
2022/05/16 08:21:10;;;;;;;;;;;;;;;;;;;;;
2022/05/16 08:24:13;;;;;;;11.02;3.22;;;20.00;99.90;;;;;;4942665;28;20101;-79
2022/05/16 08:26:39;;;;;;;8.85;2.85;;;20.10;99.90;;;;;;4942383;28;20050;-80
2022/05/16 08:32:13;;;;;;;11.85;3.13;;;20.10;99.90;;;;;;4880520;29;20060;-79
2022/05/16 08:35:07;;;;;;;;;;;;;;;;;;;;;
2022/05/16 08:44:44;;;;;;;10.13;3.03;;;20.60;99.90;;;;;;1376153;26;20108;-80
2022/05/16 08:47:56;;;;;;;10.60;2.95;;;20.80;99.90;;;;;;4878000;29;20041;-80
2022/05/16 08:51:08;;;;;;;9.32;3.45;;;21.00;99.90;;;;;;4789121;29;20051;-81
2022/05/16 08:54:24;;;;;;;8.15;2.80;;;21.10;99.90;;;;;;4806895;29;20074;-77
2022/05/16 08:57:10;;;;;;;15.13;3.28;;;21.20;99.90;;;;;;4787556;29;20085;-78
2022/05/16 09:06:12;;;;;;;10.02;2.85;;;21.30;99.90;;;;;;4956518;28;20051;-79
2022/05/16 09:09:28;;;;;;;11.27;2.70;;;21.40;99.90;;;;;;4956413;28;20053;-79
2022/05/16 09:12:29;;;;;;;13.07;2.90;;;21.60;99.90;;;;;;4875539;29;20491;-80
2022/05/16 09:15:32;;;;;;;16.45;3.17;;;21.80;99.90;;;;;;4941188;29;20046;-80
2022/05/16 09:18:48;;;;;;;8.68;3.35;;;21.90;99.90;;;;;;4846705;29;20399;-80
2022/05/16 09:21:51;;;;;;;12.98;3.58;;;22.10;99.90;;;;;;4774228;30;20470;-80
2022/05/16 09:24:52;;;;;;;;;;;;;;;;;;;;;
2022/05/16 09:30:44;;;;;;;9.77;3.28;;;22.70;99.90;;;;;;4788639;30;20172;-79
2022/05/16 09:34:15;;;;;;;;;;;;;;;;;;;;;
2022/05/16 09:37:09;;;;;;;;;;;;;;;;;;;;;
2022/05/16 09:40:07;;;;;;;6.50;2.95;;;22.80;99.90;;;;;;4788384;30;20059;-80
2022/05/16 09:42:59;;;;;;;;;;;;;;;;;;;;;
2022/05/16 09:46:04;;;;;;;7.00;3.28;;;22.80;99.90;;;;;;4831451;29;20053;-80
2022/05/16 09:49:08;;;;;;;;;;;;;;;;;;;;;
2022/05/16 09:52:12;;;;;;;;;;;;;;;;;;;;;
2022/05/16 09:54:45;;;;;;;9.50;3.22;;;22.70;99.90;;;;;;4902490;29;20126;-79
2022/05/16 09:57:19;;;;;;;9.35;2.80;;;22.60;99.90;;;;;;4925726;29;20047;-80
2022/05/16 09:59:50;;;;;;;11.40;3.50;;;22.60;99.90;;;;;;4941746;29;20047;-80
2022/05/16 10:02:24;;;;;;;6.07;2.78;;;22.60;99.90;;;;;;4924353;29;20513;-80
2022/05/16 10:04:55;;;;;;;8.75;3.15;;;22.50;99.90;;;;;;4925847;29;20043;-79
2022/05/16 10:07:44;;;;;;;8.10;3.08;;;22.50;99.90;;;;;;4957393;29;20031;-79
2022/05/16 10:10:17;;;;;;;13.25;3.30;;;22.50;99.90;;;;;;4925111;29;20516;-78
2022/05/16 10:12:43;;;;;;;9.10;3.10;;;22.50;99.90;;;;;;4925315;29;20043;-80
2022/05/16 10:15:11;;;;;;;9.73;2.90;;;22.50;99.90;;;;;;4924792;29;20130;-78
2022/05/16 10:17:38;;;;;;;10.25;3.63;;;22.50;99.90;;;;;;4940487;29;20043;-79
2022/05/16 10:20:09;;;;;;;14.25;3.70;;;22.50;99.90;;;;;;4924461;29;20058;-80
2022/05/16 10:22:36;;;;;;;11.52;3.28;;;22.50;99.90;;;;;;4923810;29;20047;-80
2022/05/16 10:25:09;;;;;;;9.77;3.67;;;22.50;99.90;;;;;;4924130;29;20114;-77
2022/05/16 10:27:38;;;;;;;8.38;3.30;;;22.40;99.90;;;;;;4924776;29;20057;-79
2022/05/16 10:30:09;;;;;;;9.30;3.35;;;22.40;99.90;;;;;;4924782;29;20043;-78
2022/05/16 10:35:33;;;;;;;13.48;3.20;;;22.30;99.90;;;;;;4940046;29;20455;-79
2022/05/16 10:38:05;;;;;;;9.45;3.70;;;22.30;99.90;;;;;;4940246;29;20047;-79
2022/05/16 10:40:36;;;;;;;9.43;3.50;;;22.30;99.90;;;;;;4924530;29;20047;-75
2022/05/16 10:43:26;;;;;;;10.18;3.13;;;22.30;99.90;;;;;;4940588;29;20050;-77
2022/05/16 10:45:57;;;;;;;8.80;3.22;;;22.40;99.90;;;;;;4925101;29;20135;-77
2022/05/16 10:48:47;;;;;;;10.73;3.35;;;22.40;99.90;;;;;;4925496;29;20078;-76
2022/05/16 10:51:23;;;;;;;10.88;3.88;;;22.50;99.90;;;;;;4925149;29;20125;-77
2022/05/16 10:54:06;;;;;;;11.68;3.92;;;22.60;99.90;;;;;;4924566;29;20035;-79
2022/05/16 10:56:39;;;;;;;9.93;3.70;;;22.60;99.90;;;;;;4923693;29;20035;-79
2022/05/16 10:59:36;;;;;;;12.10;4.38;;;22.60;99.90;;;;;;4939296;29;20493;-79
2022/05/16 11:02:17;;;;;;;9.88;3.75;;;22.70;99.90;;;;;;4923947;29;20069;-79
2022/05/16 11:04:46;;;;;;;9.45;3.60;;;22.70;99.90;;;;;;4939404;29;20403;-79
2022/05/16 11:07:21;;;;;;;8.68;3.22;;;22.70;99.90;;;;;;4956551;29;20039;-79
2022/05/16 11:09:54;;;;;;;17.13;3.97;;;22.70;99.90;;;;;;4956363;29;20043;-81
2022/05/16 11:12:43;;;;;;;9.82;3.65;;;22.60;99.90;;;;;;4939191;29;20039;-79
2022/05/16 11:15:22;;;;;;;9.07;3.90;;;22.70;99.90;;;;;;4902247;29;20059;-79
2022/05/16 11:17:57;;;;;;;11.05;3.95;;;22.80;99.90;;;;;;4938964;29;20071;-78
2022/05/16 11:20:29;;;;;;;8.90;3.92;;;22.70;99.90;;;;;;4940377;29;20047;-80
2022/05/16 11:23:26;;;;;;;8.43;3.88;;;22.80;99.90;;;;;;4939549;29;20043;-78
2022/05/16 11:26:19;;;;;;;10.25;4.40;;;22.90;99.90;;;;;;4873075;29;20507;-80
2022/05/16 11:32:02;;;;;;;9.43;3.42;;;23.00;99.90;;;;;;4938782;29;20110;-80
2022/05/16 11:34:43;;;;;;;9.32;4.60;;;23.10;99.90;;;;;;4937922;29;20043;-80
2022/05/16 11:37:40;;;;;;;9.07;3.35;;;22.90;99.90;;;;;;4922779;29;20050;-81
2022/05/16 11:40:24;;;;;;;8.13;3.70;;;22.90;99.90;;;;;;4945071;29;20134;-77
2022/05/16 11:43:23;;;;;;;9.00;4.05;;;22.90;99.90;;;;;;4946088;29;20051;-77
2022/05/16 11:46:08;;;;;;;8.90;3.35;;;22.80;99.90;;;;;;4942074;29;20078;-80
2022/05/16 11:49:04;;;;;;;6.93;3.40;;;22.90;99.90;;;;;;4938837;29;20165;-79
2022/05/16 11:51:49;;;;;;;8.70;4.10;;;22.90;99.90;;;;;;4955875;29;20369;-79
2022/05/16 11:54:22;;;;;;;6.53;4.00;;;23.00;99.90;;;;;;4939468;29;20051;-79
2022/05/16 12:02:28;;;;;;;9.10;3.90;;;23.30;99.90;;;;;;4939458;29;20074;-79
2022/05/16 12:05:07;;;;;;;11.43;4.80;;;23.30;99.90;;;;;;4938166;29;20043;-80
2022/05/16 12:07:35;;;;;;;11.07;4.30;;;23.20;99.90;;;;;;4938279;29;20127;-79
2022/05/16 12:10:10;;;;;;;9.85;4.35;;;23.20;99.90;;;;;;4937951;29;20126;-81
2022/05/16 12:12:40;;;;;;;11.45;4.40;;;23.20;99.90;;;;;;4938091;29;20090;-81
2022/05/16 12:15:24;;;;;;;13.48;4.78;;;23.10;99.90;;;;;;4922390;29;20086;-79
2022/05/16 12:18:01;;;;;;;9.20;4.15;;;23.10;99.90;;;;;;4922073;29;20039;-80
2022/05/16 12:20:35;;;;;;;10.77;4.30;;;23.20;99.90;;;;;;4938083;29;20082;-81
2022/05/16 12:23:01;;;;;;;10.40;4.03;;;23.40;99.90;;;;;;4938170;29;20042;-79
2022/05/16 12:25:32;;;;;;;8.68;4.65;;;23.50;99.90;;;;;;4937895;29;20566;-80
2022/05/16 12:28:19;;;;;;;13.25;5.72;;;23.70;99.90;;;;;;4922088;29;20043;-79
2022/05/16 12:30:52;;;;;;;10.63;4.95;;;23.80;99.90;;;;;;4955329;29;20043;-81
2022/05/16 12:33:41;;;;;;;11.65;5.75;;;23.70;99.90;;;;;;4922256;29;20039;-80
2022/05/16 12:36:15;;;;;;;13.00;6.20;;;23.60;99.90;;;;;;4937867;29;20043;-81
2022/05/16 12:38:42;;;;;;;12.13;5.20;;;23.50;99.90;;;;;;4922265;29;20478;-81
2022/05/16 12:41:39;;;;;;;12.32;4.93;;;23.50;99.90;;;;;;4955131;29;20125;-82
2022/05/16 12:44:11;;;;;;;11.95;5.72;;;23.40;99.90;;;;;;4938508;29;20054;-80
2022/05/16 12:46:58;;;;;;;12.50;5.88;;;23.40;99.90;;;;;;4942108;29;20051;-90
2022/05/16 12:49:30;;;;;;;10.80;6.95;;;23.40;99.90;;;;;;4928333;29;20134;-82
2022/05/16 12:51:59;;;;;;;14.45;7.47;;;23.30;99.90;;;;;;4941567;29;20043;-82
2022/05/16 12:55:07;;;;;;;16.33;8.20;;;23.40;99.90;;;;;;4959115;29;20125;-82
2022/05/16 12:57:53;;;;;;;16.50;8.88;;;23.40;99.90;;;;;;4941442;29;20047;-82
2022/05/16 13:00:27;;;;;;;18.67;9.63;;;23.20;99.90;;;;;;4941403;29;20047;-81
2022/05/16 13:03:30;;;;;;;17.48;10.02;;;23.10;99.90;;;;;;4959034;29;20043;-80
2022/05/16 13:06:00;;;;;;;17.00;10.35;;;23.00;99.90;;;;;;4941252;29;20152;-81
2022/05/16 13:08:45;;;;;;;13.75;8.98;;;22.90;99.90;;;;;;4958882;29;20039;-81
2022/05/16 13:11:34;;;;;;;18.83;9.55;;;23.00;99.90;;;;;;4958600;29;20099;-82
2022/05/16 13:14:17;;;;;;;19.67;9.68;;;23.00;99.90;;;;;;4959475;29;20352;-82
2022/05/16 13:16:52;;;;;;;17.63;10.13;;;23.10;99.90;;;;;;4941174;29;20048;-83
2022/05/16 13:19:18;;;;;;;16.55;11.32;;;23.10;99.90;;;;;;4925334;29;20483;-81
2022/05/16 13:22:02;;;;;;;15.35;10.05;;;23.10;99.90;;;;;;4941332;29;20101;-81
2022/05/16 13:24:28;;;;;;;17.90;11.07;;;23.10;99.90;;;;;;4958415;29;20125;-80
2022/05/16 13:29:42;;;;;;;14.93;10.38;;;23.20;99.90;;;;;;4942196;29;20345;-82
2022/05/16 13:32:10;;;;;;;16.15;11.27;;;23.40;99.90;;;;;;4958128;29;20043;-82
2022/05/16 13:34:44;;;;;;;20.27;11.30;;;23.50;99.90;;;;;;4958143;29;20035;-81
2022/05/16 13:37:11;;;;;;;17.33;10.55;;;23.60;99.90;;;;;;4909824;29;20046;-82
2022/05/16 13:39:41;;;;;;;15.98;10.45;;;23.50;99.90;;;;;;4957976;29;20046;-80
2022/05/16 13:42:07;;;;;;;16.58;10.20;;;23.70;99.90;;;;;;4958253;29;20039;-82
2022/05/16 13:44:38;;;;;;;13.52;9.63;;;23.90;99.90;;;;;;4940730;29;20043;-82
2022/05/16 13:47:07;;;;;;;15.98;9.60;;;24.00;99.90;;;;;;4940773;29;20133;-82
2022/05/16 13:49:33;;;;;;;12.27;7.30;;;24.00;99.90;;;;;;4940684;29;20484;-83
2022/05/16 13:52:01;;;;;;;9.77;6.55;;;24.00;99.90;;;;;;4940564;29;20090;-82
2022/05/16 13:54:30;;;;;;;10.98;5.82;;;23.90;99.90;;;;;;4958399;29;20062;-82
2022/05/16 13:56:59;;;;;;;16.00;8.40;;;23.80;99.90;;;;;;4940281;29;20090;-82
2022/05/16 13:59:30;;;;;;;14.90;7.05;;;23.30;99.90;;;;;;4940483;29;20039;-82
2022/05/16 14:02:01;;;;;;;14.23;6.60;;;23.10;99.90;;;;;;4957754;29;20043;-83
2022/05/16 14:04:30;;;;;;;13.20;6.85;;;23.40;99.90;;;;;;4958113;29;20039;-84
2022/05/16 14:07:04;;;;;;;14.68;7.70;;;23.30;99.90;;;;;;4940747;29;20122;-82
2022/05/16 14:09:55;;;;;;;15.32;7.25;;;23.40;99.90;;;;;;4925869;29;20053;-83
2022/05/16 14:12:35;;;;;;;15.00;8.02;;;23.00;99.90;;;;;;4940642;29;20403;-81
2022/05/16 14:15:14;;;;;;;14.52;7.72;;;22.90;99.90;;;;;;4924783;29;20122;-80
2022/05/16 14:17:43;;;;;;;17.98;9.07;;;22.70;99.90;;;;;;4940349;29;20043;-80
2022/05/16 14:20:16;;;;;;;16.10;9.10;;;22.60;99.90;;;;;;4940434;29;20051;-82
2022/05/16 14:22:51;;;;;;;15.95;8.95;;;22.30;99.90;;;;;;4924473;29;20115;-82
2022/05/16 14:26:07;;;;;;;18.70;10.02;;;22.10;99.90;;;;;;4940455;29;20543;-81
2022/05/16 14:28:34;;;;;;;;;;;21.80;99.90;;;;;;4830672;29;20137;-80
2022/05/16 14:31:15;;;;;;;20.73;13.45;;;21.60;99.90;;;;;;4948185;29;19922;-82
2022/05/16 14:33:54;;;;;;;22.42;12.88;;;21.30;99.90;;;;;;4940156;29;20054;-81
2022/05/16 14:36:33;;;;;;;27.35;16.92;;;21.00;99.90;;;;;;4957460;29;20043;-80
2022/05/16 14:39:17;;;;;;;31.98;17.83;;;20.70;99.90;;;;;;4939884;29;20047;-80
2022/05/16 14:41:51;;;;;;;29.95;19.25;;;20.30;99.90;;;;;;4939642;29;20082;-81
2022/05/16 14:44:28;;;;;;;35.70;20.38;;;20.20;99.90;;;;;;4939953;29;20055;-82
2022/05/16 14:47:13;;;;;;;36.15;20.20;;;20.10;99.90;;;;;;4957492;29;20097;-81
2022/05/16 14:49:39;;;;;;;26.92;17.73;;;19.90;99.90;;;;;;4939749;29;20051;-81
2022/05/16 14:52:05;;;;;;;33.00;15.38;;;19.70;99.90;;;;;;4939547;29;20506;-81
2022/05/16 14:54:36;;;;;;;26.40;15.07;;;19.50;99.90;;;;;;4939829;29;20047;-80
2022/05/16 14:57:03;;;;;;;20.80;12.55;;;19.50;99.90;;;;;;4957228;29;20037;-79
2022/05/16 14:59:29;;;;;;;20.20;12.50;;;19.40;99.90;;;;;;4956451;29;20163;-79
2022/05/16 15:04:39;;;;;;;18.95;11.80;;;19.30;99.90;;;;;;4939292;29;20055;-80
2022/05/16 15:07:06;;;;;;;25.85;12.60;;;19.30;99.90;;;;;;4939328;28;20083;-80
2022/05/16 15:09:33;;;;;;;24.17;13.07;;;19.20;99.90;;;;;;4956572;29;20111;-80
2022/05/16 15:12:02;;;;;;;22.90;13.55;;;19.10;99.90;;;;;;4923202;29;20047;-81
2022/05/16 15:14:30;;;;;;;28.75;14.32;;;19.10;99.90;;;;;;4939027;29;20039;-80
2022/05/16 15:16:56;;;;;;;21.10;14.35;;;19.00;99.90;;;;;;4938875;29;20476;-82
2022/05/16 15:19:23;;;;;;;29.35;15.88;;;19.10;99.90;;;;;;4923521;29;20046;-81
2022/05/16 15:21:51;;;;;;;27.95;15.68;;;19.10;99.90;;;;;;4956369;29;20126;-81
2022/05/16 15:24:26;;;;;;;33.08;17.17;;;19.10;99.90;;;;;;4956403;29;20039;-82
2022/05/16 15:26:52;;;;;;;28.50;16.20;;;19.00;99.90;;;;;;4923128;29;20484;-80
2022/05/16 15:29:18;;;;;;;34.70;17.75;;;18.90;99.90;;;;;;4939805;29;20049;-81
2022/05/16 15:31:43;;;;;;;29.95;17.38;;;18.80;99.90;;;;;;4938673;29;20043;-81
2022/05/16 15:34:09;;;;;;;35.83;18.20;;;18.80;99.90;;;;;;4938704;29;20102;-81
2022/05/16 15:36:34;;;;;;;32.42;16.13;;;18.70;99.90;;;;;;4938697;29;20039;-81
2022/05/16 15:39:03;;;;;;;33.75;19.65;;;18.60;99.90;;;;;;4922791;29;20040;-81
2022/05/16 15:41:29;;;;;;;37.85;19.60;;;18.60;99.90;;;;;;4938342;29;20077;-81
2022/05/16 15:43:55;;;;;;;36.20;19.90;;;18.60;99.90;;;;;;4938693;29;20463;-80
2022/05/16 15:46:20;;;;;;;36.65;21.65;;;18.60;99.90;;;;;;4956254;29;20496;-79
2022/05/16 15:48:47;;;;;;;40.38;21.13;;;18.60;99.90;;;;;;4938749;29;20046;-81
2022/05/16 15:51:13;;;;;;;37.83;20.52;;;18.60;99.90;;;;;;4938246;29;20118;-81
2022/05/16 15:53:41;;;;;;;39.13;22.33;;;18.60;99.90;;;;;;4922622;29;20090;-80
2022/05/16 15:56:07;;;;;;;36.40;19.45;;;18.70;99.90;;;;;;4955885;29;20114;-81
2022/05/16 15:58:33;;;;;;;37.72;21.50;;;18.60;99.90;;;;;;4938455;29;20527;-81
2022/05/16 16:01:00;;;;;;;41.78;21.20;;;18.50;99.90;;;;;;4922450;29;20051;-83
2022/05/16 16:09:01;;;;;;;44.35;21.95;;;18.40;99.90;;;;;;4938253;29;20055;-81
2022/05/16 16:11:28;;;;;;;42.28;22.23;;;18.40;99.90;;;;;;4938052;29;20055;-80
2022/05/16 16:13:54;;;;;;;42.63;22.30;;;18.40;99.90;;;;;;4938858;29;20055;-79
2022/05/16 16:16:21;;;;;;;42.22;21.60;;;18.30;99.90;;;;;;4907460;29;20043;-77
2022/05/16 16:18:49;;;;;;;43.55;21.75;;;18.20;99.90;;;;;;4956393;28;20075;-79
2022/05/16 16:21:16;;;;;;;46.65;22.13;;;18.10;99.90;;;;;;4938879;29;20047;-79
2022/05/16 16:23:42;;;;;;;39.63;19.33;;;18.20;99.90;;;;;;4957717;29;20045;-77
2022/05/16 16:26:08;;;;;;;41.30;19.35;;;18.10;99.90;;;;;;4938334;29;20126;-80
2022/05/16 16:28:34;;;;;;;44.08;20.15;;;18.10;99.90;;;;;;4938009;29;20519;-82
2022/05/16 16:31:00;;;;;;;37.33;18.00;;;18.00;99.90;;;;;;4921773;29;20047;-82
2022/05/16 16:33:29;;;;;;;39.63;18.15;;;18.10;99.90;;;;;;4955277;29;20031;-81
2022/05/16 16:35:55;;;;;;;39.15;17.98;;;18.10;99.90;;;;;;4955036;29;20054;-80
2022/05/16 16:38:22;;;;;;;32.70;15.75;;;18.10;99.90;;;;;;4937975;29;20488;-81
2022/05/16 16:40:58;;;;;;;33.78;16.92;;;18.10;99.90;;;;;;4937562;29;20054;-81
2022/05/16 16:43:34;;;;;;;37.50;16.27;;;18.20;99.90;;;;;;4938020;29;20047;-82
2022/05/16 16:46:05;;;;;;;27.77;14.50;;;18.20;99.90;;;;;;4938006;29;20047;-81
2022/05/16 16:48:32;;;;;;;37.85;15.68;;;18.20;99.90;;;;;;4938301;29;20065;-81
2022/05/16 16:50:59;;;;;;;31.45;14.30;;;18.20;99.90;;;;;;4937511;29;20054;-81
2022/05/16 16:58:56;;;;;;;27.75;12.93;;;18.20;99.90;;;;;;4938707;29;20043;-82
2022/05/16 17:01:24;;;;;;;26.83;12.88;;;18.20;99.90;;;;;;4954778;29;20058;-80
2022/05/16 17:03:50;;;;;;;28.67;10.63;;;18.20;99.90;;;;;;4937394;29;20510;-82
2022/05/16 17:06:17;;;;;;;20.33;10.45;;;18.30;99.90;;;;;;4937415;29;20095;-80
2022/05/16 17:08:44;;;;;;;21.63;9.48;;;18.20;99.90;;;;;;4921376;29;20054;-81
2022/05/16 17:11:12;;;;;;;19.83;9.35;;;18.20;99.90;;;;;;4937210;29;20167;-81
2022/05/16 17:13:38;;;;;;;20.10;8.98;;;18.20;99.90;;;;;;4937090;29;20047;-80
2022/05/16 17:16:07;;;;;;;21.55;9.32;;;18.20;99.90;;;;;;4937294;29;20050;-80
2022/05/16 17:18:33;;;;;;;20.42;8.15;;;18.20;99.90;;;;;;4954307;29;20035;-82
2022/05/16 17:21:00;;;;;;;22.90;9.00;;;18.20;99.90;;;;;;4937010;29;20110;-81
2022/05/16 17:23:27;;;;;;;19.40;9.13;;;18.20;99.90;;;;;;4937046;29;20050;-81
2022/05/16 17:25:53;;;;;;;21.60;8.10;;;18.20;99.90;;;;;;4936996;29;20125;-82
2022/05/16 17:28:23;;;;;;;16.77;7.85;;;18.20;99.90;;;;;;4921475;29;20050;-82
2022/05/16 17:30:52;;;;;;;18.95;7.97;;;18.20;99.90;;;;;;4936812;29;20082;-82
2022/05/16 17:33:18;;;;;;;19.73;8.63;;;18.20;99.90;;;;;;4941225;29;20487;-81
2022/05/16 17:35:44;;;;;;;17.30;8.00;;;18.20;99.90;;;;;;4940316;29;20043;-82
2022/05/16 17:38:10;;;;;;;17.58;8.32;;;18.10;99.90;;;;;;4940808;29;20071;-81
2022/05/16 17:40:39;;;;;;;17.30;7.97;;;18.10;99.90;;;;;;4924718;29;20078;-81
2022/05/16 17:43:06;;;;;;;16.23;8.02;;;18.10;99.90;;;;;;4958330;29;20043;-83
2022/05/16 17:45:33;;;;;;;19.67;8.63;;;18.10;99.90;;;;;;4957951;29;20507;-80
2022/05/16 17:47:59;;;;;;;20.80;8.18;;;18.10;99.90;;;;;;4958005;29;20039;-82
2022/05/16 17:50:25;;;;;;;21.63;7.72;;;18.10;99.90;;;;;;4940582;29;20499;-83
2022/05/16 17:52:50;;;;;;;19.00;7.97;;;18.00;99.90;;;;;;4958011;29;20050;-81
2022/05/16 17:55:17;;;;;;;20.65;9.10;;;18.00;99.90;;;;;;4940189;29;20039;-84
2022/05/16 17:57:44;;;;;;;20.77;8.18;;;18.00;99.90;;;;;;4941102;29;20079;-81
2022/05/16 18:00:11;;;;;;;18.73;8.57;;;18.00;99.90;;;;;;4940267;29;20150;-80
2022/05/16 18:02:39;;;;;;;21.02;7.22;;;18.00;99.90;;;;;;4940303;29;20055;-81
2022/05/16 18:05:06;;;;;;;17.08;7.70;;;17.90;99.90;;;;;;4940288;29;20047;-82
2022/05/16 18:07:32;;;;;;;17.65;6.82;;;17.90;99.90;;;;;;4958056;29;20043;-83
2022/05/16 18:09:58;;;;;;;17.55;7.45;;;17.90;99.90;;;;;;4940294;29;20062;-81
2022/05/16 18:12:43;;;;;;;17.80;7.28;;;17.90;99.90;;;;;;4940018;29;20074;-82
2022/05/16 18:15:21;;;;;;;18.33;7.20;;;17.90;99.90;;;;;;4940448;29;20039;-81
2022/05/16 18:17:49;;;;;;;15.43;6.90;;;17.90;99.90;;;;;;4940085;29;20094;-82
2022/05/16 18:20:17;;;;;;;15.45;6.80;;;17.90;99.90;;;;;;4939957;29;20051;-80
2022/05/16 18:22:45;;;;;;;20.70;7.22;;;17.90;99.90;;;;;;4939993;29;20075;-82
2022/05/16 18:25:13;;;;;;;15.45;7.05;;;17.90;99.90;;;;;;4957419;29;20117;-81
2022/05/16 18:27:42;;;;;;;14.40;7.07;;;17.90;99.90;;;;;;4957128;29;20061;-81
2022/05/16 18:30:10;;;;;;;14.60;7.03;;;17.90;99.90;;;;;;4940067;29;20087;-83
2022/05/16 18:32:36;;;;;;;15.88;6.90;;;17.90;99.90;;;;;;4940374;29;20044;-80
2022/05/16 18:35:01;;;;;;;15.60;6.70;;;17.90;99.90;;;;;;4940908;29;20035;-82
2022/05/16 18:37:27;;;;;;;19.73;7.50;;;17.90;99.90;;;;;;4925181;29;20043;-81
2022/05/16 18:39:53;;;;;;;12.98;6.40;;;17.90;99.90;;;;;;4963340;29;20035;-76
2022/05/16 18:50:47;;;;;;;18.27;7.18;;;17.90;99.90;;;;;;4944051;29;20110;-80